Time;durP1;ratioP1;P1;durP2;ratioP2;P2;SDS_P1;SDS_P2;PMS_P1;PMS_P2;Temp;Humidity;BMP_temperature;BMP_pressure;BME280_temperature;BME280_humidity;BME280_pressure;Samples;Min_cycle;Max_cycle;Signal;HPM_P1;HPM_P2
2021/06/25 00:00:34;;;;;;;26.75;21.70;;;;;;;;;;5071388;28;20458;-63
2021/06/25 00:03:00;;;;;;;25.52;21.30;;;;;;;;;;5071195;28;20029;-63
2021/06/25 00:05:26;;;;;;;26.38;22.60;;;;;;;;;;5069737;28;20074;-63
2021/06/25 00:07:52;;;;;;;28.83;22.45;;;;;;;;;;5071067;28;20122;-63
2021/06/25 00:10:18;;;;;;;26.98;21.58;;;;;;;;;;5070940;28;20020;-63
2021/06/25 00:12:44;;;;;;;26.50;21.60;;;;;;;;;;5071148;28;20042;-63
2021/06/25 00:15:11;;;;;;;28.55;22.85;;;;;;;;;;5070874;28;20075;-63
2021/06/25 00:17:37;;;;;;;25.85;22.83;;;;;;;;;;5071060;28;20059;-63
2021/06/25 00:20:04;;;;;;;28.77;23.45;;;;;;;;;;5070964;28;20032;-63
2021/06/25 00:22:30;;;;;;;28.75;22.67;;;;;;;;;;5071042;28;20025;-63
2021/06/25 00:24:56;;;;;;;28.23;23.80;;;;;;;;;;5069538;28;20025;-63
2021/06/25 00:27:22;;;;;;;28.63;22.05;;;;;;;;;;5070993;28;20049;-63
2021/06/25 00:29:49;;;;;;;29.10;22.95;;;;;;;;;;5091559;23;20036;-67
2021/06/25 00:32:15;;;;;;;31.13;23.48;;;;;;;;;;5071591;28;20025;-69
2021/06/25 00:34:41;;;;;;;28.60;23.50;;;;;;;;;;5053381;28;20541;-70
2021/06/25 00:37:07;;;;;;;32.55;23.33;;;;;;;;;;5071771;28;20025;-68
2021/06/25 00:39:33;;;;;;;28.52;22.88;;;;;;;;;;5071481;28;20020;-70
2021/06/25 00:41:59;;;;;;;29.67;23.00;;;;;;;;;;5070382;28;20027;-69
2021/06/25 00:44:25;;;;;;;30.35;23.48;;;;;;;;;;5071099;28;20032;-69
2021/06/25 00:46:51;;;;;;;31.40;23.90;;;;;;;;;;5075229;28;20104;-69
2021/06/25 00:49:17;;;;;;;29.92;23.25;;;;;;;;;;5075578;28;20020;-67
2021/06/25 00:51:44;;;;;;;30.65;22.98;;;;;;;;;;5075571;28;20028;-68
2021/06/25 00:54:11;;;;;;;28.42;22.92;;;;;;;;;;5075175;28;20510;-68
2021/06/25 00:56:37;;;;;;;28.05;23.33;;;;;;;;;;5074377;28;20119;-69
2021/06/25 00:59:04;;;;;;;28.45;22.77;;;;;;;;;;5075209;28;20032;-69
2021/06/25 01:01:30;;;;;;;30.17;24.40;;;;;;;;;;5075520;28;20035;-68
2021/06/25 01:03:56;;;;;;;32.97;23.25;;;;;;;;;;5074231;28;20032;-69
2021/06/25 01:06:22;;;;;;;32.55;23.02;;;;;;;;;;5073869;28;20027;-69
2021/06/25 01:08:48;;;;;;;31.45;24.45;;;;;;;;;;5075266;28;20468;-68
2021/06/25 01:11:14;;;;;;;30.90;24.65;;;;;;;;;;5075093;28;20016;-69
2021/06/25 01:13:41;;;;;;;32.55;24.05;;;;;;;;;;5073864;28;20017;-68
2021/06/25 01:16:08;;;;;;;28.90;22.98;;;;;;;;;;5074869;28;20021;-68
2021/06/25 01:18:34;;;;;;;32.67;23.63;;;;;;;;;;5075058;28;20021;-68
2021/06/25 01:21:01;;;;;;;29.73;23.17;;;;;;;;;;5073839;28;20059;-68
2021/06/25 01:23:27;;;;;;;30.13;23.88;;;;;;;;;;5074930;28;20031;-68
2021/06/25 01:25:53;;;;;;;30.20;23.80;;;;;;;;;;5074918;28;20433;-69
2021/06/25 01:28:19;;;;;;;29.17;23.00;;;;;;;;;;5074848;28;20543;-68
2021/06/25 01:30:46;;;;;;;29.52;22.88;;;;;;;;;;5074769;28;20067;-69
2021/06/25 01:33:14;;;;;;;29.00;23.15;;;;;;;;;;5074689;28;20082;-68
2021/06/25 01:35:40;;;;;;;29.70;22.13;;;;;;;;;;5074466;28;20107;-68
2021/06/25 01:38:07;;;;;;;30.08;24.90;;;;;;;;;;5074863;28;20029;-68
2021/06/25 01:40:33;;;;;;;31.33;23.10;;;;;;;;;;5074490;28;20171;-68
2021/06/25 01:43:00;;;;;;;30.70;23.35;;;;;;;;;;5073208;28;20068;-68
2021/06/25 01:45:27;;;;;;;31.27;23.27;;;;;;;;;;5073099;28;20443;-69
2021/06/25 01:47:53;;;;;;;32.33;24.23;;;;;;;;;;5073473;28;20107;-69
2021/06/25 01:50:24;;;;;;;28.63;23.38;;;;;;;;;;5074245;28;20033;-68
2021/06/25 01:52:51;;;;;;;29.98;23.40;;;;;;;;;;5074547;28;20423;-69
2021/06/25 01:55:18;;;;;;;33.33;25.30;;;;;;;;;;5074150;28;20032;-68
2021/06/25 01:57:44;;;;;;;30.70;24.33;;;;;;;;;;5074115;28;20058;-69
2021/06/25 02:00:11;;;;;;;32.38;23.05;;;;;;;;;;5074110;28;20027;-68
2021/06/25 02:02:37;;;;;;;30.25;24.92;;;;;;;;;;5056346;28;20374;-69
2021/06/25 02:05:04;;;;;;;31.05;25.10;;;;;;;;;;5073843;28;20020;-68
2021/06/25 02:07:30;;;;;;;29.35;23.17;;;;;;;;;;5072736;28;20017;-69
2021/06/25 02:09:57;;;;;;;30.27;23.67;;;;;;;;;;5074070;28;20029;-69
2021/06/25 02:12:23;;;;;;;30.00;25.33;;;;;;;;;;5073933;28;20024;-69
2021/06/25 02:14:49;;;;;;;29.92;24.88;;;;;;;;;;5072368;28;20128;-68
2021/06/25 02:17:16;;;;;;;28.83;24.92;;;;;;;;;;5072938;28;20309;-68
2021/06/25 02:19:43;;;;;;;31.00;23.83;;;;;;;;;;5073863;28;20023;-68
2021/06/25 02:22:09;;;;;;;28.73;24.50;;;;;;;;;;5073897;28;20392;-69
2021/06/25 02:24:35;;;;;;;31.05;24.52;;;;;;;;;;5072311;28;20029;-68
2021/06/25 02:27:01;;;;;;;30.65;24.95;;;;;;;;;;5073689;28;20025;-67
2021/06/25 02:29:27;;;;;;;29.85;24.08;;;;;;;;;;5073464;28;20033;-68
2021/06/25 02:31:53;;;;;;;30.17;24.02;;;;;;;;;;5073516;28;20483;-67
2021/06/25 02:34:19;;;;;;;30.70;23.67;;;;;;;;;;5071971;28;20032;-67
2021/06/25 02:36:45;;;;;;;30.80;25.10;;;;;;;;;;5073528;28;20024;-67
2021/06/25 02:39:11;;;;;;;30.13;24.48;;;;;;;;;;5072711;28;20024;-67
2021/06/25 02:41:37;;;;;;;30.83;24.98;;;;;;;;;;5073306;28;20039;-67
2021/06/25 02:44:03;;;;;;;30.02;24.80;;;;;;;;;;5072011;28;20115;-67
2021/06/25 02:46:29;;;;;;;31.17;24.45;;;;;;;;;;5073111;28;20024;-67
2021/06/25 02:48:55;;;;;;;32.05;24.23;;;;;;;;;;5072008;28;20027;-68
2021/06/25 02:51:21;;;;;;;30.52;23.98;;;;;;;;;;5071884;28;20025;-68
2021/06/25 02:53:47;;;;;;;33.03;24.92;;;;;;;;;;5071789;28;20036;-67
2021/06/25 02:56:13;;;;;;;30.52;25.17;;;;;;;;;;5072019;28;20167;-68
2021/06/25 02:58:39;;;;;;;31.45;25.40;;;;;;;;;;5071791;28;20391;-68
2021/06/25 03:01:05;;;;;;;32.50;25.20;;;;;;;;;;5072898;28;20032;-67
2021/06/25 03:03:31;;;;;;;34.70;26.77;;;;;;;;;;5072024;28;20025;-68
2021/06/25 03:05:57;;;;;;;31.13;25.50;;;;;;;;;;5072635;28;20016;-67
2021/06/25 03:08:23;;;;;;;33.72;26.23;;;;;;;;;;5071144;28;20115;-67
2021/06/25 03:10:50;;;;;;;31.83;26.27;;;;;;;;;;5072852;28;20048;-67
2021/06/25 03:13:17;;;;;;;36.35;27.67;;;;;;;;;;5071556;28;20024;-67
2021/06/25 03:15:43;;;;;;;32.50;26.77;;;;;;;;;;5071361;28;20024;-67
2021/06/25 03:18:09;;;;;;;34.42;25.80;;;;;;;;;;5073182;28;20100;-67
2021/06/25 03:20:35;;;;;;;33.13;26.17;;;;;;;;;;5073022;28;20044;-67
2021/06/25 03:23:01;;;;;;;35.05;28.48;;;;;;;;;;5073596;28;20671;-67
2021/06/25 03:25:27;;;;;;;34.55;28.23;;;;;;;;;;5071306;28;20111;-67
2021/06/25 03:27:53;;;;;;;33.83;27.83;;;;;;;;;;5072511;28;20024;-69
2021/06/25 03:30:19;;;;;;;34.72;27.55;;;;;;;;;;5070787;28;20506;-68
2021/06/25 03:32:45;;;;;;;38.95;29.08;;;;;;;;;;5070831;28;20035;-69
2021/06/25 03:35:12;;;;;;;34.83;27.70;;;;;;;;;;5071953;28;20029;-68
2021/06/25 03:37:38;;;;;;;40.42;30.65;;;;;;;;;;5071093;28;20028;-69
2021/06/25 03:40:05;;;;;;;36.55;30.83;;;;;;;;;;5071946;28;20099;-67
2021/06/25 03:42:31;;;;;;;38.42;30.08;;;;;;;;;;5071800;28;20028;-68
2021/06/25 03:44:57;;;;;;;39.45;31.60;;;;;;;;;;5070677;28;20032;-67
2021/06/25 03:47:23;;;;;;;37.92;31.52;;;;;;;;;;5071094;28;20063;-67
2021/06/25 03:49:49;;;;;;;40.10;31.27;;;;;;;;;;5072574;28;20032;-67
2021/06/25 03:52:15;;;;;;;40.35;31.33;;;;;;;;;;5071361;28;20025;-67
2021/06/25 03:54:42;;;;;;;38.50;30.95;;;;;;;;;;5072421;28;20020;-68
2021/06/25 03:57:08;;;;;;;40.47;32.05;;;;;;;;;;5072871;28;20035;-67
2021/06/25 03:59:34;;;;;;;37.28;31.00;;;;;;;;;;5072151;28;20031;-67
2021/06/25 04:02:00;;;;;;;35.90;31.08;;;;;;;;;;5071967;28;20103;-68
2021/06/25 04:04:26;;;;;;;40.08;30.90;;;;;;;;;;5072141;28;20024;-67
2021/06/25 04:06:52;;;;;;;39.10;33.10;;;;;;;;;;5070734;28;20017;-67
2021/06/25 04:09:18;;;;;;;40.17;32.70;;;;;;;;;;5071919;28;20101;-67
2021/06/25 04:11:44;;;;;;;41.28;34.47;;;;;;;;;;5070776;28;20452;-67
2021/06/25 04:14:10;;;;;;;42.28;32.08;;;;;;;;;;5071561;28;20082;-67
2021/06/25 04:16:36;;;;;;;42.25;32.60;;;;;;;;;;5070515;28;20024;-67
2021/06/25 04:19:02;;;;;;;41.15;32.58;;;;;;;;;;5071232;28;20035;-68
2021/06/25 04:21:28;;;;;;;40.53;33.58;;;;;;;;;;5071026;28;20037;-68
2021/06/25 04:23:54;;;;;;;42.78;33.95;;;;;;;;;;5070417;28;20027;-68
2021/06/25 04:26:20;;;;;;;42.55;33.00;;;;;;;;;;5070152;28;20027;-68
2021/06/25 04:28:46;;;;;;;38.70;33.50;;;;;;;;;;5071604;28;20096;-68
2021/06/25 04:31:13;;;;;;;38.22;31.98;;;;;;;;;;5071929;28;20381;-68
2021/06/25 04:33:39;;;;;;;38.17;31.15;;;;;;;;;;5071756;28;20025;-67
2021/06/25 04:36:05;;;;;;;39.92;32.13;;;;;;;;;;5074627;28;20538;-68
2021/06/25 04:38:31;;;;;;;42.63;32.00;;;;;;;;;;5075207;28;20025;-67
2021/06/25 04:40:57;;;;;;;42.80;32.78;;;;;;;;;;5073928;28;20161;-68
2021/06/25 04:43:23;;;;;;;41.30;32.33;;;;;;;;;;5073469;28;20063;-68
2021/06/25 04:45:49;;;;;;;42.20;33.72;;;;;;;;;;5072172;28;20037;-68
2021/06/25 04:48:16;;;;;;;39.33;32.88;;;;;;;;;;5070718;28;20032;-68
2021/06/25 04:50:42;;;;;;;46.50;36.08;;;;;;;;;;5069914;28;20116;-68
2021/06/25 04:53:09;;;;;;;42.97;34.42;;;;;;;;;;5071582;28;20122;-68
2021/06/25 04:55:41;;;;;;;45.53;35.35;;;;;;;;;;5071285;28;20107;-68
2021/06/25 04:58:09;;;;;;;45.65;36.33;;;;;;;;;;5070366;28;20556;-68
2021/06/25 05:00:35;;;;;;;43.58;34.40;;;;;;;;;;5071378;28;20046;-69
2021/06/25 05:03:01;;;;;;;41.90;33.70;;;;;;;;;;5071337;28;20032;-68
2021/06/25 05:05:27;;;;;;;44.15;34.97;;;;;;;;;;5070926;28;20036;-67
2021/06/25 05:07:53;;;;;;;42.63;34.35;;;;;;;;;;5071137;28;20024;-67
2021/06/25 05:10:19;;;;;;;40.17;33.70;;;;;;;;;;5069493;28;20032;-67
2021/06/25 05:12:45;;;;;;;42.70;33.80;;;;;;;;;;5071261;28;20084;-67
2021/06/25 05:15:11;;;;;;;40.90;33.13;;;;;;;;;;5070719;28;20103;-67
2021/06/25 05:17:37;;;;;;;42.47;31.70;;;;;;;;;;5071184;28;20094;-65
2021/06/25 05:20:04;;;;;;;41.83;31.23;;;;;;;;;;5069408;28;20112;-68
2021/06/25 05:22:30;;;;;;;43.50;33.55;;;;;;;;;;5069879;28;20028;-68
2021/06/25 05:24:57;;;;;;;37.25;30.15;;;;;;;;;;5069589;28;20039;-69
2021/06/25 05:27:23;;;;;;;43.10;32.80;;;;;;;;;;5071142;28;20052;-68
2021/06/25 05:29:49;;;;;;;43.95;31.60;;;;;;;;;;5070900;28;20381;-69
2021/06/25 05:32:15;;;;;;;39.33;30.02;;;;;;;;;;5073506;28;20016;-69
2021/06/25 05:34:41;;;;;;;41.88;32.30;;;;;;;;;;5074050;28;20035;-68
2021/06/25 05:37:07;;;;;;;41.97;29.80;;;;;;;;;;5074517;28;20028;-68
2021/06/25 05:39:33;;;;;;;36.63;28.92;;;;;;;;;;5073996;28;20082;-68
2021/06/25 05:41:59;;;;;;;37.22;28.35;;;;;;;;;;5072227;28;20028;-69
2021/06/25 05:44:25;;;;;;;34.03;25.00;;;;;;;;;;5073558;28;20100;-68
2021/06/25 05:46:51;;;;;;;31.30;25.48;;;;;;;;;;5074078;28;20472;-67
2021/06/25 05:49:17;;;;;;;30.55;24.27;;;;;;;;;;5073219;28;20025;-67
2021/06/25 05:51:43;;;;;;;32.40;25.45;;;;;;;;;;5073757;28;20016;-68
2021/06/25 05:54:09;;;;;;;30.30;21.17;;;;;;;;;;5073704;28;20044;-68
2021/06/25 05:56:35;;;;;;;32.00;23.42;;;;;;;;;;5072968;28;20032;-68
2021/06/25 05:59:01;;;;;;;29.63;21.20;;;;;;;;;;5073768;28;20028;-68
2021/06/25 06:01:29;;;;;;;30.00;21.42;;;;;;;;;;5071413;28;20075;-67
2021/06/25 06:03:55;;;;;;;27.02;20.33;;;;;;;;;;5072354;28;20441;-67
2021/06/25 06:06:21;;;;;;;22.92;17.80;;;;;;;;;;5072337;28;20040;-67
2021/06/25 06:08:47;;;;;;;25.80;18.58;;;;;;;;;;5073610;28;20028;-67
2021/06/25 06:11:13;;;;;;;29.45;18.73;;;;;;;;;;5055714;28;20115;-67
2021/06/25 06:13:39;;;;;;;24.10;17.15;;;;;;;;;;5035917;28;20051;-67
2021/06/25 06:16:06;;;;;;;23.00;18.15;;;;;;;;;;5035470;28;20033;-67
2021/06/25 06:18:38;;;;;;;22.77;18.20;;;;;;;;;;5060896;28;20115;-66
2021/06/25 06:21:05;;;;;;;24.25;17.70;;;;;;;;;;5074200;28;20020;-67
2021/06/25 06:32:00;;;;;;;24.90;18.23;;;;;;;;;;5073457;28;20031;-67
2021/06/25 06:34:27;;;;;;;21.70;17.13;;;;;;;;;;5102023;22;20476;-60
2021/06/25 06:36:53;;;;;;;22.67;18.05;;;;;;;;;;5028931;28;20446;-66
2021/06/25 06:39:21;;;;;;;23.25;17.42;;;;;;;;;;5048519;28;20401;-64
2021/06/25 06:41:47;;;;;;;22.63;17.97;;;;;;;;;;5048808;28;20531;-65
2021/06/25 06:44:13;;;;;;;23.33;17.15;;;;;;;;;;5031840;28;20661;-64
2021/06/25 06:46:39;;;;;;;21.65;18.10;;;;;;;;;;5033100;28;20029;-65
2021/06/25 06:49:05;;;;;;;21.75;17.40;;;;;;;;;;5031788;28;20025;-63
2021/06/25 06:51:31;;;;;;;22.02;16.73;;;;;;;;;;5033347;28;20060;-62
2021/06/25 06:54:00;;;;;;;22.38;18.38;;;;;;;;;;5031882;28;20025;-63
2021/06/25 06:56:26;;;;;;;;;;;;;;;;;;5033604;28;20018;-63
2021/06/25 06:58:53;;;;;;;20.20;17.02;;;;;;;;;;5031518;28;19905;-63
2021/06/25 07:01:19;;;;;;;21.52;18.42;;;;;;;;;;5033193;28;20080;-63
2021/06/25 07:03:45;;;;;;;23.42;18.77;;;;;;;;;;5012384;28;20079;-63
2021/06/25 07:06:11;;;;;;;22.52;17.83;;;;;;;;;;5013151;28;20164;-64
2021/06/25 07:08:37;;;;;;;20.58;17.88;;;;;;;;;;5011728;28;20026;-64
2021/06/25 07:11:03;;;;;;;20.40;17.33;;;;;;;;;;5013411;28;20470;-62
2021/06/25 07:13:29;;;;;;;19.35;17.02;;;;;;;;;;5012901;28;20046;-63
2021/06/25 07:15:56;;;;;;;19.30;17.05;;;;;;;;;;5012512;28;20442;-64
2021/06/25 07:18:23;;;;;;;20.92;17.33;;;;;;;;;;5013031;28;20026;-63
2021/06/25 07:20:49;;;;;;;20.13;17.50;;;;;;;;;;5013219;28;20037;-63
2021/06/25 07:23:15;;;;;;;21.02;17.48;;;;;;;;;;5012880;28;20901;-63
2021/06/25 07:25:41;;;;;;;22.10;18.08;;;;;;;;;;5011561;28;20018;-62
2021/06/25 07:28:07;;;;;;;19.67;16.90;;;;;;;;;;5012907;28;20026;-63
2021/06/25 07:30:33;;;;;;;19.42;16.20;;;;;;;;;;5013291;28;20097;-61
2021/06/25 07:32:59;;;;;;;18.98;16.90;;;;;;;;;;5012842;28;20523;-63
2021/06/25 07:35:25;;;;;;;18.90;16.90;;;;;;;;;;5011021;28;20033;-62
2021/06/25 07:37:51;;;;;;;20.42;16.95;;;;;;;;;;5031473;28;20498;-63
2021/06/25 07:40:19;;;;;;;19.38;16.63;;;;;;;;;;5031568;28;20482;-61
2021/06/25 07:42:45;;;;;;;19.45;16.40;;;;;;;;;;5032829;28;20096;-64
2021/06/25 07:45:11;;;;;;;18.65;16.65;;;;;;;;;;5032018;28;20022;-62
2021/06/25 07:47:38;;;;;;;19.77;16.63;;;;;;;;;;5032263;28;20552;-61
2021/06/25 07:50:05;;;;;;;19.33;17.00;;;;;;;;;;5031898;28;20041;-64
2021/06/25 07:52:31;;;;;;;22.40;17.40;;;;;;;;;;5031891;28;20490;-64
2021/06/25 07:54:57;;;;;;;20.63;18.40;;;;;;;;;;5030696;28;20017;-64
2021/06/25 07:57:23;;;;;;;18.88;16.88;;;;;;;;;;5032162;28;20077;-62
2021/06/25 07:59:49;;;;;;;18.92;16.92;;;;;;;;;;5032066;28;20481;-64
2021/06/25 08:02:15;;;;;;;18.77;16.77;;;;;;;;;;5025646;28;20033;-64
2021/06/25 08:04:45;;;;;;;19.27;16.92;;;;;;;;;;5010374;28;20034;-64
2021/06/25 08:07:12;;;;;;;19.58;17.48;;;;;;;;;;5011150;28;20022;-65
2021/06/25 08:09:38;;;;;;;21.17;17.55;;;;;;;;;;5011522;28;20032;-64
2021/06/25 08:12:04;;;;;;;19.95;17.27;;;;;;;;;;5012426;28;20033;-64
2021/06/25 08:14:30;;;;;;;19.77;17.45;;;;;;;;;;5010719;28;20429;-65
2021/06/25 08:16:56;;;;;;;19.35;17.05;;;;;;;;;;5012202;28;20026;-64
2021/06/25 08:19:22;;;;;;;19.55;17.20;;;;;;;;;;5010542;28;20494;-64
2021/06/25 08:21:48;;;;;;;19.88;17.48;;;;;;;;;;5010571;28;20088;-64
2021/06/25 08:24:14;;;;;;;21.30;16.77;;;;;;;;;;5011828;28;20034;-64
2021/06/25 08:26:40;;;;;;;20.27;17.40;;;;;;;;;;5010410;28;20022;-65
2021/06/25 08:29:06;;;;;;;21.60;18.33;;;;;;;;;;5012052;28;20049;-65
2021/06/25 08:31:32;;;;;;;21.00;17.92;;;;;;;;;;5012025;28;20028;-65
2021/06/25 08:33:58;;;;;;;20.88;18.67;;;;;;;;;;5010822;28;20029;-66
2021/06/25 08:36:25;;;;;;;21.00;18.55;;;;;;;;;;5011797;28;20052;-62
2021/06/25 08:38:51;;;;;;;20.42;18.33;;;;;;;;;;5012051;28;20494;-60
2021/06/25 08:41:18;;;;;;;20.80;17.17;;;;;;;;;;5012124;28;20025;-60
2021/06/25 08:43:44;;;;;;;19.38;17.27;;;;;;;;;;5012066;28;20025;-61
2021/06/25 08:46:11;;;;;;;19.73;17.63;;;;;;;;;;5010163;28;20026;-58
2021/06/25 08:48:37;;;;;;;21.70;19.25;;;;;;;;;;5011378;28;20431;-61
2021/06/25 08:51:05;;;;;;;21.08;18.40;;;;;;;;;;5011708;28;20508;-62
2021/06/25 08:53:31;;;;;;;19.00;17.00;;;;;;;;;;5012333;28;20026;-60
2021/06/25 08:55:57;;;;;;;19.10;17.10;;;;;;;;;;5010798;28;20466;-61
2021/06/25 08:58:24;;;;;;;19.05;16.42;;;;;;;;;;5012245;28;20556;-59
2021/06/25 09:00:50;;;;;;;17.75;15.85;;;;;;;;;;5010928;28;20030;-59
2021/06/25 09:03:20;;;;;;;18.80;16.80;;;;;;;;;;5011966;28;20026;-58
2021/06/25 09:05:46;;;;;;;18.52;16.10;;;;;;;;;;5011207;28;20525;-62
2021/06/25 09:08:29;;;;;;;18.52;16.38;;;;;;;;;;5014004;28;20100;-58
2021/06/25 09:10:58;;;;;;;18.67;16.67;;;;;;;;;;5015651;28;20026;-59
2021/06/25 09:13:37;;;;;;;18.70;16.70;;;;;;;;;;5015452;28;20137;-58
2021/06/25 09:16:20;;;;;;;18.95;16.92;;;;;;;;;;5015140;28;20033;-56
2021/06/25 09:18:58;;;;;;;18.90;16.77;;;;;;;;;;5015035;28;20033;-58
2021/06/25 09:21:24;;;;;;;18.13;16.10;;;;;;;;;;5027609;28;20022;-60
2021/06/25 09:23:51;;;;;;;19.33;17.10;;;;;;;;;;5014855;28;20026;-60
2021/06/25 09:26:20;;;;;;;19.88;17.15;;;;;;;;;;5013600;28;20033;-59
2021/06/25 09:28:47;;;;;;;18.98;16.98;;;;;;;;;;5014859;28;20022;-56
2021/06/25 09:31:17;;;;;;;18.75;16.75;;;;;;;;;;5013682;28;20024;-59
2021/06/25 09:33:44;;;;;;;20.45;17.73;;;;;;;;;;5014570;28;20168;-59
2021/06/25 09:36:21;;;;;;;20.75;18.15;;;;;;;;;;5013921;28;20037;-62
2021/06/25 09:38:47;;;;;;;20.90;18.52;;;;;;;;;;5027271;28;20477;-60
2021/06/25 09:41:16;;;;;;;20.33;18.23;;;;;;;;;;5014664;28;20036;-58
2021/06/25 09:43:52;;;;;;;20.27;18.17;;;;;;;;;;5012789;28;20449;-61
2021/06/25 09:46:24;;;;;;;21.30;18.27;;;;;;;;;;4996522;28;20022;-61
2021/06/25 09:48:57;;;;;;;20.67;18.45;;;;;;;;;;5011767;28;20077;-58
2021/06/25 09:51:23;;;;;;;20.88;18.67;;;;;;;;;;5014238;28;20627;-60
2021/06/25 09:54:05;;;;;;;22.38;19.98;;;;;;;;;;5014238;28;20018;-59
2021/06/25 09:56:33;;;;;;;23.02;19.05;;;;;;;;;;5011810;28;20065;-56
2021/06/25 09:59:29;;;;;;;21.97;19.33;;;;;;;;;;5014365;28;20092;-61
2021/06/25 10:01:55;;;;;;;21.58;19.27;;;;;;;;;;5014080;28;20068;-58
2021/06/25 10:04:37;;;;;;;22.88;19.38;;;;;;;;;;5012752;28;20026;-61
2021/06/25 10:07:11;;;;;;;21.55;19.25;;;;;;;;;;5013121;28;20026;-57
2021/06/25 10:09:37;;;;;;;21.88;19.50;;;;;;;;;;5014341;28;20049;-60
2021/06/25 10:12:03;;;;;;;22.63;20.10;;;;;;;;;;5013255;28;20382;-60
2021/06/25 10:14:29;;;;;;;22.80;20.25;;;;;;;;;;5013958;28;20026;-60
2021/06/25 10:16:55;;;;;;;24.00;20.17;;;;;;;;;;5014000;28;20026;-58
2021/06/25 10:19:22;;;;;;;23.17;20.45;;;;;;;;;;5012820;28;20057;-59
2021/06/25 10:21:48;;;;;;;24.98;19.80;;;;;;;;;;5013415;28;20029;-59
2021/06/25 10:24:16;;;;;;;23.17;19.75;;;;;;;;;;5013528;28;20034;-60
2021/06/25 10:26:42;;;;;;;22.10;19.73;;;;;;;;;;5013681;28;20452;-60
2021/06/25 10:29:09;;;;;;;21.10;18.90;;;;;;;;;;5012177;28;20030;-62
2021/06/25 10:31:35;;;;;;;22.35;20.02;;;;;;;;;;5011721;28;20470;-57
2021/06/25 10:34:02;;;;;;;22.45;20.05;;;;;;;;;;5013495;28;20029;-60
2021/06/25 10:36:30;;;;;;;22.33;19.70;;;;;;;;;;5012073;28;20111;-60
2021/06/25 10:39:03;;;;;;;22.77;20.05;;;;;;;;;;5013583;28;20049;-60
2021/06/25 10:41:46;;;;;;;23.30;20.50;;;;;;;;;;5014236;28;20025;-57
2021/06/25 10:44:32;;;;;;;21.80;19.50;;;;;;;;;;5012843;28;20026;-59
2021/06/25 10:47:12;;;;;;;21.77;19.48;;;;;;;;;;5011460;28;20030;-59
2021/06/25 10:49:57;;;;;;;21.98;19.63;;;;;;;;;;5013547;28;20599;-59
2021/06/25 10:52:23;;;;;;;22.27;19.33;;;;;;;;;;5013269;28;20057;-61
2021/06/25 10:54:59;;;;;;;22.85;20.45;;;;;;;;;;5012985;28;20026;-61
2021/06/25 10:57:25;;;;;;;21.92;19.55;;;;;;;;;;5011801;28;20052;-60
2021/06/25 10:59:51;;;;;;;21.98;19.67;;;;;;;;;;5012689;28;20030;-57
2021/06/25 11:02:17;;;;;;;22.85;20.45;;;;;;;;;;5011817;28;20036;-62
2021/06/25 11:04:44;;;;;;;23.48;20.98;;;;;;;;;;5011390;28;20022;-60
2021/06/25 11:07:10;;;;;;;24.10;21.38;;;;;;;;;;5012865;28;20026;-60
2021/06/25 11:09:52;;;;;;;22.67;20.33;;;;;;;;;;5012885;28;20022;-60
2021/06/25 11:12:26;;;;;;;22.50;19.67;;;;;;;;;;5012808;28;20034;-59
2021/06/25 11:14:56;;;;;;;23.30;19.52;;;;;;;;;;5012476;28;20425;-59
2021/06/25 11:17:41;;;;;;;22.17;19.40;;;;;;;;;;5011451;28;20128;-62
2021/06/25 11:20:20;;;;;;;23.38;20.52;;;;;;;;;;5012605;28;20025;-57
2021/06/25 11:22:52;;;;;;;25.17;20.60;;;;;;;;;;5010763;28;20034;-62
2021/06/25 11:25:33;;;;;;;23.90;21.38;;;;;;;;;;5011834;28;20136;-60
2021/06/25 11:28:08;;;;;;;23.27;20.88;;;;;;;;;;5012858;28;20462;-60
2021/06/25 11:30:52;;;;;;;24.85;22.02;;;;;;;;;;5012043;28;20029;-59
2021/06/25 11:33:29;;;;;;;23.95;21.55;;;;;;;;;;5012111;28;20318;-59
2021/06/25 11:35:56;;;;;;;25.45;22.77;;;;;;;;;;5011433;28;20390;-55
2021/06/25 11:39:01;;;;;;;25.48;22.77;;;;;;;;;;5011774;28;20093;-57
2021/06/25 11:41:35;;;;;;;25.05;22.35;;;;;;;;;;4970175;28;20494;-61
2021/06/25 11:44:25;;;;;;;24.73;22.25;;;;;;;;;;4970499;28;20050;-60
2021/06/25 11:46:53;;;;;;;27.35;24.60;;;;;;;;;;4993582;28;20494;-58
2021/06/25 11:49:19;;;;;;;26.50;23.70;;;25.90;95.90;;;;;;5012064;28;20045;-62
2021/06/25 11:51:45;;;;;;;26.27;23.58;;;;;;;;;;5011924;28;20533;-62
2021/06/25 11:54:13;;;;;;;27.65;24.90;;;;;;;;;;5010792;28;20029;-60
2021/06/25 11:56:43;;;;;;;28.15;25.15;;;;;;;;;;5011722;28;20030;-60
2021/06/25 11:59:10;;;;;;;27.20;24.30;;;;;;;;;;5012297;28;20128;-61
2021/06/25 12:01:50;;;;;;;30.10;27.17;;;;;;;;;;5011071;28;20064;-63
2021/06/25 12:04:30;;;;;;;28.45;25.48;;;;;;;;;;5011482;28;20034;-62
2021/06/25 12:06:59;;;;;;;29.77;26.60;;;;;;;;;;5010828;28;20041;-63
2021/06/25 12:09:36;;;;;;;30.95;27.67;;;;;;;;;;5011640;28;20022;-60
2021/06/25 12:12:02;;;;;;;31.42;28.25;;;;;;;;;;5012071;28;20057;-63
2021/06/25 12:14:40;;;;;;;36.05;28.67;;;;;;;;;;5011758;28;20100;-63
2021/06/25 12:17:06;;;;;;;29.88;26.77;;;;;;;;;;5011667;28;20038;-60
2021/06/25 12:19:32;;;;;;;29.20;26.08;;;;;;;;;;5011781;28;20029;-63
2021/06/25 12:22:04;;;;;;;32.50;29.23;;;;;;;;;;5011463;28;20022;-63
2021/06/25 12:24:30;;;;;;;31.92;27.75;;;;;;;;;;5010494;28;20030;-60
2021/06/25 12:26:56;;;;;;;31.40;28.10;;;;;;;;;;5012233;28;20297;-61
2021/06/25 12:29:24;;;;;;;31.95;28.55;;;;;;;;;;5010859;28;20112;-59
2021/06/25 12:31:52;;;;;;;31.10;27.70;;;;;;;;;;5012024;28;20118;-61
2021/06/25 12:34:18;;;;;;;31.90;28.57;;;;;;;;;;5011624;28;20022;-60
2021/06/25 12:36:44;;;;;;;30.40;27.13;;;;;;;;;;5056343;23;20497;-62
2021/06/25 12:39:11;;;;;;;31.15;27.83;;;;;;;;;;5066214;28;20060;-62
2021/06/25 12:41:43;;;;;;;32.45;29.25;;;;;;;;;;5052529;28;20031;-61
2021/06/25 12:44:11;;;;;;;35.88;32.15;;;;;;;;;;5070288;28;20037;-61
2021/06/25 12:46:37;;;;;;;34.75;31.25;;;;;;;;;;5055157;28;20020;-62
2021/06/25 12:49:04;;;;;;;34.92;30.23;;;;;;;;;;5053279;28;20023;-61
2021/06/25 12:51:34;;;;;;;32.72;28.95;;;;;;;;;;5055542;28;20021;-63
2021/06/25 12:54:00;;;;;;;33.05;29.65;;;;;;;;;;5055011;28;20125;-63
2021/06/25 12:56:30;;;;;;;32.83;29.58;;;;;;;;;;5053157;28;20052;-63
2021/06/25 12:59:00;;;;;;;34.75;31.27;;;;;;;;;;5055006;28;20025;-64
2021/06/25 13:01:34;;;;;;;32.90;29.65;;;;;;;;;;5054648;28;20124;-62
2021/06/25 13:04:00;;;;;;;33.63;30.27;;;;;;;;;;5035433;28;20068;-61
2021/06/25 13:06:31;;;;;;;33.70;30.10;;;;;;;;;;5040566;28;20462;-61
2021/06/25 13:08:58;;;;;;;34.28;30.73;;;;;;;;;;5050083;28;20420;-62
2021/06/25 13:11:28;;;;;;;33.05;29.73;;;;;;;;;;5051479;28;20037;-61
2021/06/25 13:13:54;;;;;;;34.78;31.17;;;;;;;;;;5051450;28;20103;-61
2021/06/25 13:16:21;;;;;;;34.83;30.42;;;;;;;;;;5043450;28;20398;-62
2021/06/25 13:18:48;;;;;;;33.95;29.67;;;;;;;;;;5041091;28;20029;-61
2021/06/25 13:21:27;;;;;;;33.00;29.58;;;;;;;;;;5040838;28;20025;-61
2021/06/25 13:23:52;;;;;;;;;;;;;;;;;;5042763;28;20111;-61
2021/06/25 13:26:22;;;;;;;31.50;28.23;;;;;;;;;;5035323;28;20004;-63
2021/06/25 13:28:56;;;;;;;30.52;27.40;;;;;;;;;;5022139;28;20345;-61
2021/06/25 13:31:22;;;;;;;29.75;26.73;;;;;;;;;;5041906;28;20618;-63
2021/06/25 13:33:48;;;;;;;31.27;27.95;;;;;;;;;;5041583;28;20017;-63
2021/06/25 13:36:14;;;;;;;29.60;26.23;;;;;;;;;;5051188;28;20084;-63
2021/06/25 13:38:40;;;;;;;31.25;27.40;;;;;;;;;;5044130;28;20087;-62
2021/06/25 13:41:24;;;;;;;30.77;27.13;;;;;;;;;;5051429;28;20024;-62
2021/06/25 13:43:51;;;;;;;30.20;27.10;;;;;;;;;;5049564;28;20501;-63
2021/06/25 13:46:18;;;;;;;30.15;26.00;;;;;;;;;;5051003;28;20392;-61
2021/06/25 13:48:46;;;;;;;28.17;24.38;;;;;;;;;;5048607;28;20021;-62
2021/06/25 13:51:12;;;;;;;29.27;26.03;;;;;;;;;;5051372;28;20017;-59
2021/06/25 13:53:43;;;;;;;30.08;26.80;;;;;;;;;;5050433;28;20013;-62
2021/06/25 13:56:19;;;;;;;30.23;26.92;;;;;;;;;;5047730;28;20052;-62
2021/06/25 13:58:59;;;;;;;29.90;26.55;;;;;;;;;;5041362;28;20052;-64
2021/06/25 14:01:28;;;;;;;29.73;26.63;;;;;;;;;;5032388;28;20046;-62
2021/06/25 14:03:58;;;;;;;31.65;27.27;;;;;;;;;;5033456;28;20213;-63
2021/06/25 14:06:24;;;;;;;30.00;26.77;;;;;;;;;;5032428;28;20076;-64
2021/06/25 14:08:50;;;;;;;30.92;27.65;;;;;;;;;;5033256;28;20125;-62
2021/06/25 14:11:21;;;;;;;29.83;26.73;;;;;;;;;;5032855;28;20053;-63
2021/06/25 14:13:49;;;;;;;31.02;27.10;;;;;;;;;;5034289;28;20044;-64
2021/06/25 14:16:20;;;;;;;30.10;27.10;;;;;;;;;;5034401;28;20028;-64
2021/06/25 14:18:46;;;;;;;29.70;26.20;;;;;;;;;;5034729;28;20401;-63
2021/06/25 14:21:13;;;;;;;29.17;26.08;;;;;;;;;;5034558;28;20022;-63
2021/06/25 14:23:39;;;;;;;30.20;27.17;;;;;;;;;;5033661;28;20474;-66
2021/06/25 14:26:06;;;;;;;30.55;27.40;;;;;;;;;;5034341;28;20163;-65
2021/06/25 14:28:32;;;;;;;28.83;25.73;;;;;;;;;;5045348;28;20545;-64
2021/06/25 14:30:59;;;;;;;31.58;26.65;;;;;;;;;;5044531;28;20104;-65